Terminal Aerodrome Forecast
Issued by NWS Shreveport, LA

Home | Current Version | Previous Version | Text Only | Print | Product List | Glossary On
Versions: 1 2 3 4 5 6 7 8 9 10 11 12 13 14 15 16 17
430
FTUS44 KSHV 211819 RRA
TAFTXK
TAF
KTXK 211819Z 2118/2218 18007KT P6SM VCSH SCT080 OVC250
      TEMPO 2118/2120 -RA BKN015 OVC080
     FM212000 19006KT 6SM -RA BKN007 OVC015
     FM212200 20007KT P6SM VCSH OVC006
     FM220000 21006KT 6SM -TSRA BKN010CB OVC020
     FM220200 20008KT 3SM TSRA BR BKN015CB OVC025
     FM220600 23010KT P6SM BKN100 BKN250
     FM221600 27013G19KT P6SM SCT250=

USA.gov is the U.S. government's official web portal to all federal, state and local government web resources and services.